sensor_id;sensor_type;location;lat;lon;timestamp;temperature;humidity
68943;DHT22;60852;52.190;4.422;2023-08-01T00:01:53;18.78;77.12
68943;DHT22;60852;52.190;4.422;2023-08-01T00:04:18;18.75;76.84
68943;DHT22;60852;52.190;4.422;2023-08-01T00:06:44;18.69;76.76
68943;DHT22;60852;52.190;4.422;2023-08-01T00:09:09;18.69;77.17
68943;DHT22;60852;52.190;4.422;2023-08-01T00:11:35;18.73;77.14
68943;DHT22;60852;52.190;4.422;2023-08-01T00:14:00;18.72;77.19
68943;DHT22;60852;52.190;4.422;2023-08-01T00:16:26;18.72;77.20
68943;DHT22;60852;52.190;4.422;2023-08-01T00:18:52;18.65;77.19
68943;DHT22;60852;52.190;4.422;2023-08-01T00:21:17;18.69;77.31
68943;DHT22;60852;52.190;4.422;2023-08-01T00:23:43;18.68;77.17
68943;DHT22;60852;52.190;4.422;2023-08-01T00:26:08;18.67;77.40
68943;DHT22;60852;52.190;4.422;2023-08-01T00:28:34;18.67;77.26
68943;DHT22;60852;52.190;4.422;2023-08-01T00:31:06;18.69;77.27
68943;DHT22;60852;52.190;4.422;2023-08-01T00:33:34;18.68;77.06
68943;DHT22;60852;52.190;4.422;2023-08-01T00:36:00;18.65;77.09
68943;DHT22;60852;52.190;4.422;2023-08-01T00:38:26;18.72;77.08
68943;DHT22;60852;52.190;4.422;2023-08-01T00:40:51;18.79;77.33
68943;DHT22;60852;52.190;4.422;2023-08-01T00:43:17;18.79;77.10
68943;DHT22;60852;52.190;4.422;2023-08-01T00:45:42;18.78;76.92
68943;DHT22;60852;52.190;4.422;2023-08-01T00:48:08;18.78;76.99
68943;DHT22;60852;52.190;4.422;2023-08-01T00:50:34;18.76;76.82
68943;DHT22;60852;52.190;4.422;2023-08-01T00:53:00;18.79;76.91
68943;DHT22;60852;52.190;4.422;2023-08-01T00:55:27;18.78;76.68
68943;DHT22;60852;52.190;4.422;2023-08-01T00:57:54;18.82;76.61
68943;DHT22;60852;52.190;4.422;2023-08-01T01:00:20;18.82;76.16
68943;DHT22;60852;52.190;4.422;2023-08-01T01:02:46;18.82;76.19
68943;DHT22;60852;52.190;4.422;2023-08-01T01:05:12;18.82;76.38
68943;DHT22;60852;52.190;4.422;2023-08-01T01:07:39;18.88;76.92
68943;DHT22;60852;52.190;4.422;2023-08-01T01:10:05;18.92;77.24
68943;DHT22;60852;52.190;4.422;2023-08-01T01:12:31;18.88;76.53
68943;DHT22;60852;52.190;4.422;2023-08-01T01:14:56;18.68;74.98
68943;DHT22;60852;52.190;4.422;2023-08-01T01:17:22;18.40;75.62
68943;DHT22;60852;52.190;4.422;2023-08-01T01:19:47;18.23;76.66
68943;DHT22;60852;52.190;4.422;2023-08-01T01:22:14;18.13;77.64
68943;DHT22;60852;52.190;4.422;2023-08-01T01:24:42;18.01;78.72
68943;DHT22;60852;52.190;4.422;2023-08-01T01:27:08;17.87;78.92
68943;DHT22;60852;52.190;4.422;2023-08-01T01:29:35;17.86;79.47
68943;DHT22;60852;52.190;4.422;2023-08-01T01:32:03;17.82;80.10
68943;DHT22;60852;52.190;4.422;2023-08-01T01:34:29;17.82;80.71
68943;DHT22;60852;52.190;4.422;2023-08-01T01:36:55;17.78;81.13
68943;DHT22;60852;52.190;4.422;2023-08-01T01:39:20;17.79;81.66
68943;DHT22;60852;52.190;4.422;2023-08-01T01:41:46;17.79;81.96
68943;DHT22;60852;52.190;4.422;2023-08-01T01:44:12;17.80;82.03
68943;DHT22;60852;52.190;4.422;2023-08-01T01:46:37;17.76;82.31
68943;DHT22;60852;52.190;4.422;2023-08-01T01:49:02;17.76;82.39
68943;DHT22;60852;52.190;4.422;2023-08-01T01:51:29;17.85;83.12
68943;DHT22;60852;52.190;4.422;2023-08-01T01:53:54;17.92;83.32
68943;DHT22;60852;52.190;4.422;2023-08-01T01:56:20;17.97;83.33
68943;DHT22;60852;52.190;4.422;2023-08-01T01:58:45;17.96;83.11
68943;DHT22;60852;52.190;4.422;2023-08-01T02:01:11;17.96;83.00
68943;DHT22;60852;52.190;4.422;2023-08-01T02:03:36;17.92;83.05
68943;DHT22;60852;52.190;4.422;2023-08-01T02:06:02;17.97;82.96
68943;DHT22;60852;52.190;4.422;2023-08-01T02:08:31;18.03;82.81
68943;DHT22;60852;52.190;4.422;2023-08-01T02:10:57;18.00;82.45
68943;DHT22;60852;52.190;4.422;2023-08-01T02:13:27;17.99;82.72
68943;DHT22;60852;52.190;4.422;2023-08-01T02:15:53;18.03;82.80
68943;DHT22;60852;52.190;4.422;2023-08-01T02:18:19;18.09;82.63
68943;DHT22;60852;52.190;4.422;2023-08-01T02:20:44;18.03;82.64
68943;DHT22;60852;52.190;4.422;2023-08-01T02:23:10;18.03;82.61
68943;DHT22;60852;52.190;4.422;2023-08-01T02:25:42;17.99;82.90
68943;DHT22;60852;52.190;4.422;2023-08-01T02:28:08;18.03;82.57
68943;DHT22;60852;52.190;4.422;2023-08-01T02:30:34;18.07;82.57
68943;DHT22;60852;52.190;4.422;2023-08-01T02:33:00;18.09;82.49
68943;DHT22;60852;52.190;4.422;2023-08-01T02:35:25;18.06;82.77
68943;DHT22;60852;52.190;4.422;2023-08-01T02:37:53;18.09;82.30
68943;DHT22;60852;52.190;4.422;2023-08-01T02:40:19;18.06;82.14
68943;DHT22;60852;52.190;4.422;2023-08-01T02:42:44;18.09;81.81
68943;DHT22;60852;52.190;4.422;2023-08-01T02:45:10;18.11;81.99
68943;DHT22;60852;52.190;4.422;2023-08-01T02:47:35;18.14;81.77
68943;DHT22;60852;52.190;4.422;2023-08-01T02:50:01;18.11;81.81
68943;DHT22;60852;52.190;4.422;2023-08-01T02:52:26;18.13;81.77
68943;DHT22;60852;52.190;4.422;2023-08-01T02:54:53;18.17;81.92
68943;DHT22;60852;52.190;4.422;2023-08-01T02:57:18;18.14;81.78
68943;DHT22;60852;52.190;4.422;2023-08-01T02:59:44;18.17;81.94
68943;DHT22;60852;52.190;4.422;2023-08-01T03:02:10;18.18;81.97
68943;DHT22;60852;52.190;4.422;2023-08-01T03:04:35;18.24;82.02
68943;DHT22;60852;52.190;4.422;2023-08-01T03:07:01;18.17;81.88
68943;DHT22;60852;52.190;4.422;2023-08-01T03:09:26;18.18;82.00
68943;DHT22;60852;52.190;4.422;2023-08-01T03:11:52;18.17;81.67
68943;DHT22;60852;52.190;4.422;2023-08-01T03:14:17;18.10;81.64
68943;DHT22;60852;52.190;4.422;2023-08-01T03:16:43;18.13;81.93
68943;DHT22;60852;52.190;4.422;2023-08-01T03:19:08;18.13;82.24
68943;DHT22;60852;52.190;4.422;2023-08-01T03:21:34;18.21;82.11
68943;DHT22;60852;52.190;4.422;2023-08-01T03:24:01;18.26;81.77
68943;DHT22;60852;52.190;4.422;2023-08-01T03:26:27;18.20;81.28
68943;DHT22;60852;52.190;4.422;2023-08-01T03:28:56;18.17;81.28
68943;DHT22;60852;52.190;4.422;2023-08-01T03:31:22;18.10;81.27
68943;DHT22;60852;52.190;4.422;2023-08-01T03:33:48;18.09;81.06
68943;DHT22;60852;52.190;4.422;2023-08-01T03:36:13;18.06;80.90
68943;DHT22;60852;52.190;4.422;2023-08-01T03:38:39;18.13;80.93
68943;DHT22;60852;52.190;4.422;2023-08-01T03:41:04;18.18;80.42
68943;DHT22;60852;52.190;4.422;2023-08-01T03:43:30;18.18;80.60
68943;DHT22;60852;52.190;4.422;2023-08-01T03:45:56;18.23;80.64
68943;DHT22;60852;52.190;4.422;2023-08-01T03:48:21;18.24;81.19
68943;DHT22;60852;52.190;4.422;2023-08-01T03:50:47;18.27;81.37
68943;DHT22;60852;52.190;4.422;2023-08-01T03:53:12;18.26;81.46
68943;DHT22;60852;52.190;4.422;2023-08-01T03:55:37;18.20;81.16
68943;DHT22;60852;52.190;4.422;2023-08-01T03:58:03;18.18;81.41
68943;DHT22;60852;52.190;4.422;2023-08-01T04:00:28;18.24;81.36
68943;DHT22;60852;52.190;4.422;2023-08-01T04:02:58;18.24;80.98
68943;DHT22;60852;52.190;4.422;2023-08-01T04:05:24;18.20;80.41
68943;DHT22;60852;52.190;4.422;2023-08-01T04:07:49;18.14;80.60
68943;DHT22;60852;52.190;4.422;2023-08-01T04:10:15;18.16;80.59
68943;DHT22;60852;52.190;4.422;2023-08-01T04:12:41;18.07;79.69
68943;DHT22;60852;52.190;4.422;2023-08-01T04:15:08;18.07;79.56
68943;DHT22;60852;52.190;4.422;2023-08-01T04:17:34;18.04;79.98
68943;DHT22;60852;52.190;4.422;2023-08-01T04:19:59;18.07;80.21
68943;DHT22;60852;52.190;4.422;2023-08-01T04:22:25;18.13;80.22
68943;DHT22;60852;52.190;4.422;2023-08-01T04:24:50;18.13;80.12
68943;DHT22;60852;52.190;4.422;2023-08-01T04:27:16;18.13;79.92
68943;DHT22;60852;52.190;4.422;2023-08-01T04:29:41;18.04;79.94
68943;DHT22;60852;52.190;4.422;2023-08-01T04:32:07;18.00;79.88
68943;DHT22;60852;52.190;4.422;2023-08-01T04:34:33;17.94;79.51
68943;DHT22;60852;52.190;4.422;2023-08-01T04:36:58;17.94;79.43
68943;DHT22;60852;52.190;4.422;2023-08-01T04:39:24;18.03;79.84
68943;DHT22;60852;52.190;4.422;2023-08-01T04:41:49;18.06;79.76
68943;DHT22;60852;52.190;4.422;2023-08-01T04:44:15;18.06;80.03
68943;DHT22;60852;52.190;4.422;2023-08-01T04:46:41;18.10;80.01
68943;DHT22;60852;52.190;4.422;2023-08-01T04:49:07;18.10;79.47
68943;DHT22;60852;52.190;4.422;2023-08-01T04:51:32;18.10;78.96
68943;DHT22;60852;52.190;4.422;2023-08-01T04:53:58;18.10;78.61
68943;DHT22;60852;52.190;4.422;2023-08-01T04:56:23;18.14;78.84
68943;DHT22;60852;52.190;4.422;2023-08-01T04:58:49;18.23;79.12
68943;DHT22;60852;52.190;4.422;2023-08-01T05:01:14;18.23;78.97
68943;DHT22;60852;52.190;4.422;2023-08-01T05:03:40;18.18;78.70
68943;DHT22;60852;52.190;4.422;2023-08-01T05:06:05;18.10;78.55
68943;DHT22;60852;52.190;4.422;2023-08-01T05:08:31;18.10;78.80
68943;DHT22;60852;52.190;4.422;2023-08-01T05:10:56;18.07;78.85
68943;DHT22;60852;52.190;4.422;2023-08-01T05:13:22;18.07;78.76
68943;DHT22;60852;52.190;4.422;2023-08-01T05:15:47;18.03;78.44
68943;DHT22;60852;52.190;4.422;2023-08-01T05:18:13;18.07;78.31
68943;DHT22;60852;52.190;4.422;2023-08-01T05:20:39;18.04;77.01
68943;DHT22;60852;52.190;4.422;2023-08-01T05:23:04;18.10;76.54
68943;DHT22;60852;52.190;4.422;2023-08-01T05:25:30;18.31;75.95
68943;DHT22;60852;52.190;4.422;2023-08-01T05:27:55;18.48;75.43
68943;DHT22;60852;52.190;4.422;2023-08-01T05:30:21;18.71;75.31
68943;DHT22;60852;52.190;4.422;2023-08-01T05:32:46;18.62;74.53
68943;DHT22;60852;52.190;4.422;2023-08-01T05:35:12;18.69;74.47
68943;DHT22;60852;52.190;4.422;2023-08-01T05:37:38;18.69;74.27
68943;DHT22;60852;52.190;4.422;2023-08-01T05:40:04;18.68;74.76
68943;DHT22;60852;52.190;4.422;2023-08-01T05:42:29;18.81;74.54
68943;DHT22;60852;52.190;4.422;2023-08-01T05:44:55;18.99;74.19
68943;DHT22;60852;52.190;4.422;2023-08-01T05:47:20;19.03;74.17
68943;DHT22;60852;52.190;4.422;2023-08-01T05:49:48;19.15;74.16
68943;DHT22;60852;52.190;4.422;2023-08-01T05:52:13;19.08;73.64
68943;DHT22;60852;52.190;4.422;2023-08-01T05:54:39;19.50;73.41
68943;DHT22;60852;52.190;4.422;2023-08-01T05:57:05;19.81;72.92
68943;DHT22;60852;52.190;4.422;2023-08-01T05:59:30;20.55;71.24
68943;DHT22;60852;52.190;4.422;2023-08-01T06:01:56;20.50;69.91
68943;DHT22;60852;52.190;4.422;2023-08-01T06:04:21;20.09;71.25
68943;DHT22;60852;52.190;4.422;2023-08-01T06:06:47;20.22;70.43
68943;DHT22;60852;52.190;4.422;2023-08-01T06:09:13;19.82;71.35
68943;DHT22;60852;52.190;4.422;2023-08-01T06:11:38;19.58;72.48
68943;DHT22;60852;52.190;4.422;2023-08-01T06:14:04;19.41;73.11
68943;DHT22;60852;52.190;4.422;2023-08-01T06:16:29;19.58;73.72
68943;DHT22;60852;52.190;4.422;2023-08-01T06:18:55;19.53;73.30
68943;DHT22;60852;52.190;4.422;2023-08-01T06:21:22;19.39;73.78
68943;DHT22;60852;52.190;4.422;2023-08-01T06:23:47;19.29;74.32
68943;DHT22;60852;52.190;4.422;2023-08-01T06:26:13;19.29;74.68
68943;DHT22;60852;52.190;4.422;2023-08-01T06:28:41;19.31;74.54
68943;DHT22;60852;52.190;4.422;2023-08-01T06:31:06;19.23;74.57
68943;DHT22;60852;52.190;4.422;2023-08-01T06:33:32;19.20;74.76
68943;DHT22;60852;52.190;4.422;2023-08-01T06:35:57;19.15;74.93
68943;DHT22;60852;52.190;4.422;2023-08-01T06:38:23;19.05;75.00
68943;DHT22;60852;52.190;4.422;2023-08-01T06:40:49;19.09;75.24
68943;DHT22;60852;52.190;4.422;2023-08-01T06:43:14;19.15;74.79
68943;DHT22;60852;52.190;4.422;2023-08-01T06:45:40;19.15;73.72
68943;DHT22;60852;52.190;4.422;2023-08-01T06:48:05;19.24;73.99
68943;DHT22;60852;52.190;4.422;2023-08-01T06:50:30;19.30;74.00
68943;DHT22;60852;52.190;4.422;2023-08-01T06:52:56;19.36;73.76
68943;DHT22;60852;52.190;4.422;2023-08-01T06:55:21;19.54;73.35
68943;DHT22;60852;52.190;4.422;2023-08-01T06:57:47;19.61;72.43
68943;DHT22;60852;52.190;4.422;2023-08-01T07:00:12;19.51;72.26
68943;DHT22;60852;52.190;4.422;2023-08-01T07:02:38;19.34;72.88
68943;DHT22;60852;52.190;4.422;2023-08-01T07:05:04;19.29;73.46
68943;DHT22;60852;52.190;4.422;2023-08-01T07:07:30;19.29;72.97
68943;DHT22;60852;52.190;4.422;2023-08-01T07:09:55;19.41;73.36
68943;DHT22;60852;52.190;4.422;2023-08-01T07:12:21;19.54;72.30
68943;DHT22;60852;52.190;4.422;2023-08-01T07:14:46;19.61;72.07
68943;DHT22;60852;52.190;4.422;2023-08-01T07:17:12;19.68;72.31
68943;DHT22;60852;52.190;4.422;2023-08-01T07:19:37;19.64;71.95
68943;DHT22;60852;52.190;4.422;2023-08-01T07:22:03;19.56;71.17
68943;DHT22;60852;52.190;4.422;2023-08-01T07:24:28;19.64;71.77
68943;DHT22;60852;52.190;4.422;2023-08-01T07:26:54;19.58;71.85
68943;DHT22;60852;52.190;4.422;2023-08-01T07:29:19;19.51;70.73
68943;DHT22;60852;52.190;4.422;2023-08-01T07:31:45;19.50;71.39
68943;DHT22;60852;52.190;4.422;2023-08-01T07:34:11;19.43;72.54
68943;DHT22;60852;52.190;4.422;2023-08-01T07:36:36;19.43;71.96
68943;DHT22;60852;52.190;4.422;2023-08-01T07:39:02;19.54;71.88
68943;DHT22;60852;52.190;4.422;2023-08-01T07:41:29;19.71;72.18
68943;DHT22;60852;52.190;4.422;2023-08-01T07:43:54;19.84;71.72
68943;DHT22;60852;52.190;4.422;2023-08-01T07:46:19;19.85;71.28
68943;DHT22;60852;52.190;4.422;2023-08-01T07:48:45;19.77;71.92
68943;DHT22;60852;52.190;4.422;2023-08-01T07:51:10;19.71;71.73
68943;DHT22;60852;52.190;4.422;2023-08-01T07:53:37;19.57;71.62
68943;DHT22;60852;52.190;4.422;2023-08-01T07:56:02;19.49;71.17
68943;DHT22;60852;52.190;4.422;2023-08-01T07:58:29;19.58;71.38
68943;DHT22;60852;52.190;4.422;2023-08-01T08:00:55;19.78;71.44
68943;DHT22;60852;52.190;4.422;2023-08-01T08:03:20;19.94;71.60
68943;DHT22;60852;52.190;4.422;2023-08-01T08:05:49;20.02;70.79
68943;DHT22;60852;52.190;4.422;2023-08-01T08:08:14;19.85;71.44
68943;DHT22;60852;52.190;4.422;2023-08-01T08:10:40;19.75;72.26
68943;DHT22;60852;52.190;4.422;2023-08-01T08:13:05;19.57;72.45
68943;DHT22;60852;52.190;4.422;2023-08-01T08:15:31;19.50;73.09
68943;DHT22;60852;52.190;4.422;2023-08-01T08:18:02;19.58;71.98
68943;DHT22;60852;52.190;4.422;2023-08-01T08:20:31;19.63;71.46
68943;DHT22;60852;52.190;4.422;2023-08-01T08:22:57;19.73;72.02
68943;DHT22;60852;52.190;4.422;2023-08-01T08:25:22;19.66;70.92
68943;DHT22;60852;52.190;4.422;2023-08-01T08:27:51;19.56;71.12
68943;DHT22;60852;52.190;4.422;2023-08-01T08:30:17;19.49;71.14
68943;DHT22;60852;52.190;4.422;2023-08-01T08:32:42;19.54;71.76
68943;DHT22;60852;52.190;4.422;2023-08-01T08:35:08;19.56;72.66
68943;DHT22;60852;52.190;4.422;2023-08-01T08:37:33;19.57;73.11
68943;DHT22;60852;52.190;4.422;2023-08-01T08:39:59;19.43;72.73
68943;DHT22;60852;52.190;4.422;2023-08-01T08:42:24;19.45;73.28
68943;DHT22;60852;52.190;4.422;2023-08-01T08:44:54;19.53;72.80
68943;DHT22;60852;52.190;4.422;2023-08-01T08:47:25;19.75;72.23
68943;DHT22;60852;52.190;4.422;2023-08-01T08:49:52;19.81;71.47
68943;DHT22;60852;52.190;4.422;2023-08-01T08:52:20;20.01;70.53
68943;DHT22;60852;52.190;4.422;2023-08-01T08:54:47;20.08;70.47
68943;DHT22;60852;52.190;4.422;2023-08-01T08:57:13;20.12;70.42
68943;DHT22;60852;52.190;4.422;2023-08-01T08:59:38;20.04;70.01
68943;DHT22;60852;52.190;4.422;2023-08-01T09:02:04;19.91;70.15
68943;DHT22;60852;52.190;4.422;2023-08-01T09:04:31;19.87;70.61
68943;DHT22;60852;52.190;4.422;2023-08-01T09:07:02;19.94;71.08
68943;DHT22;60852;52.190;4.422;2023-08-01T09:09:29;20.07;69.89
68943;DHT22;60852;52.190;4.422;2023-08-01T09:11:54;20.18;69.27
68943;DHT22;60852;52.190;4.422;2023-08-01T09:14:22;20.19;69.21
68943;DHT22;60852;52.190;4.422;2023-08-01T09:16:47;20.21;69.72
68943;DHT22;60852;52.190;4.422;2023-08-01T09:19:22;20.29;69.45
68943;DHT22;60852;52.190;4.422;2023-08-01T09:21:49;20.24;69.08
68943;DHT22;60852;52.190;4.422;2023-08-01T09:24:17;20.30;69.29
68943;DHT22;60852;52.190;4.422;2023-08-01T09:26:44;20.42;69.73
68943;DHT22;60852;52.190;4.422;2023-08-01T09:29:09;20.50;69.37
68943;DHT22;60852;52.190;4.422;2023-08-01T09:31:37;20.33;69.49
68943;DHT22;60852;52.190;4.422;2023-08-01T09:34:04;20.15;69.12
68943;DHT22;60852;52.190;4.422;2023-08-01T09:36:32;20.09;69.49
68943;DHT22;60852;52.190;4.422;2023-08-01T09:38:59;20.21;69.71
68943;DHT22;60852;52.190;4.422;2023-08-01T09:41:25;20.39;70.08
68943;DHT22;60852;52.190;4.422;2023-08-01T09:43:51;20.56;68.59
68943;DHT22;60852;52.190;4.422;2023-08-01T09:46:16;20.56;68.34
68943;DHT22;60852;52.190;4.422;2023-08-01T09:48:42;20.56;67.80
68943;DHT22;60852;52.190;4.422;2023-08-01T09:51:10;20.62;67.82
68943;DHT22;60852;52.190;4.422;2023-08-01T09:56:19;20.91;68.46
68943;DHT22;60852;52.190;4.422;2023-08-01T09:58:46;20.83;66.94
68943;DHT22;60852;52.190;4.422;2023-08-01T10:01:14;20.91;66.70
68943;DHT22;60852;52.190;4.422;2023-08-01T10:03:45;21.15;66.94
68943;DHT22;60852;52.190;4.422;2023-08-01T10:06:24;21.32;65.90
68943;DHT22;60852;52.190;4.422;2023-08-01T10:08:52;21.21;65.44
68943;DHT22;60852;52.190;4.422;2023-08-01T10:11:20;21.41;65.05
68943;DHT22;60852;52.190;4.422;2023-08-01T10:13:46;21.20;64.79
68943;DHT22;60852;52.190;4.422;2023-08-01T10:16:12;21.73;64.11
68943;DHT22;60852;52.190;4.422;2023-08-01T10:18:39;22.13;63.37
68943;DHT22;60852;52.190;4.422;2023-08-01T10:21:11;22.29;63.02
68943;DHT22;60852;52.190;4.422;2023-08-01T10:23:37;22.17;62.73
68943;DHT22;60852;52.190;4.422;2023-08-01T10:26:06;21.83;63.08
68943;DHT22;60852;52.190;4.422;2023-08-01T10:28:34;21.85;63.74
68943;DHT22;60852;52.190;4.422;2023-08-01T10:31:17;21.86;63.00
68943;DHT22;60852;52.190;4.422;2023-08-01T10:33:46;22.00;63.57
68943;DHT22;60852;52.190;4.422;2023-08-01T10:36:16;21.75;63.24
68943;DHT22;60852;52.190;4.422;2023-08-01T10:41:25;22.25;61.51
68943;DHT22;60852;52.190;4.422;2023-08-01T10:43:50;22.39;60.38
68943;DHT22;60852;52.190;4.422;2023-08-01T10:46:16;21.97;61.34
68943;DHT22;60852;52.190;4.422;2023-08-01T10:48:51;22.04;62.61
68943;DHT22;60852;52.190;4.422;2023-08-01T10:51:17;22.09;62.46
68943;DHT22;60852;52.190;4.422;2023-08-01T10:53:43;21.93;62.39
68943;DHT22;60852;52.190;4.422;2023-08-01T10:56:16;21.49;64.16
68943;DHT22;60852;52.190;4.422;2023-08-01T10:58:42;21.20;64.77
68943;DHT22;60852;52.190;4.422;2023-08-01T11:01:08;21.51;64.46
68943;DHT22;60852;52.190;4.422;2023-08-01T11:03:37;21.42;64.12
68943;DHT22;60852;52.190;4.422;2023-08-01T11:06:03;21.24;64.23
68943;DHT22;60852;52.190;4.422;2023-08-01T11:08:36;21.14;64.66
68943;DHT22;60852;52.190;4.422;2023-08-01T11:11:04;21.32;65.74
68943;DHT22;60852;52.190;4.422;2023-08-01T11:13:30;21.41;65.18
68943;DHT22;60852;52.190;4.422;2023-08-01T11:15:57;21.45;63.92
68943;DHT22;60852;52.190;4.422;2023-08-01T11:18:22;21.39;64.29
68943;DHT22;60852;52.190;4.422;2023-08-01T11:20:48;21.48;64.41
68943;DHT22;60852;52.190;4.422;2023-08-01T11:23:13;21.78;64.36
68943;DHT22;60852;52.190;4.422;2023-08-01T11:25:41;22.07;62.58
68943;DHT22;60852;52.190;4.422;2023-08-01T11:28:13;22.23;61.68
68943;DHT22;60852;52.190;4.422;2023-08-01T11:30:40;22.32;60.47
68943;DHT22;60852;52.190;4.422;2023-08-01T11:33:17;22.68;60.46
68943;DHT22;60852;52.190;4.422;2023-08-01T11:35:43;22.88;58.51
68943;DHT22;60852;52.190;4.422;2023-08-01T11:38:09;22.87;59.22
68943;DHT22;60852;52.190;4.422;2023-08-01T11:40:35;22.88;59.75
68943;DHT22;60852;52.190;4.422;2023-08-01T11:43:02;22.76;59.93
68943;DHT22;60852;52.190;4.422;2023-08-01T11:45:27;22.67;60.07
68943;DHT22;60852;52.190;4.422;2023-08-01T11:47:53;22.34;61.68
68943;DHT22;60852;52.190;4.422;2023-08-01T11:50:24;21.89;63.68
68943;DHT22;60852;52.190;4.422;2023-08-01T11:52:50;21.59;65.55
68943;DHT22;60852;52.190;4.422;2023-08-01T11:55:24;21.32;66.88
68943;DHT22;60852;52.190;4.422;2023-08-01T11:57:54;21.17;66.80
68943;DHT22;60852;52.190;4.422;2023-08-01T12:00:28;20.96;68.00
68943;DHT22;60852;52.190;4.422;2023-08-01T12:03:08;20.77;71.66
68943;DHT22;60852;52.190;4.422;2023-08-01T12:05:39;20.62;71.97
68943;DHT22;60852;52.190;4.422;2023-08-01T12:08:14;20.52;73.25
68943;DHT22;60852;52.190;4.422;2023-08-01T12:10:43;20.30;73.17
68943;DHT22;60852;52.190;4.422;2023-08-01T12:13:22;20.29;73.95
68943;DHT22;60852;52.190;4.422;2023-08-01T12:15:48;20.43;73.53
68943;DHT22;60852;52.190;4.422;2023-08-01T12:18:28;20.50;72.07
68943;DHT22;60852;52.190;4.422;2023-08-01T12:20:55;20.66;72.06
68943;DHT22;60852;52.190;4.422;2023-08-01T12:23:21;20.86;71.36
68943;DHT22;60852;52.190;4.422;2023-08-01T12:25:47;21.08;70.57
68943;DHT22;60852;52.190;4.422;2023-08-01T12:28:14;21.17;69.13
68943;DHT22;60852;52.190;4.422;2023-08-01T12:30:41;21.17;68.90
68943;DHT22;60852;52.190;4.422;2023-08-01T12:33:07;21.20;67.56
68943;DHT22;60852;52.190;4.422;2023-08-01T12:35:33;21.17;67.62
68943;DHT22;60852;52.190;4.422;2023-08-01T12:37:58;21.35;68.32
68943;DHT22;60852;52.190;4.422;2023-08-01T12:40:24;21.45;66.77
68943;DHT22;60852;52.190;4.422;2023-08-01T12:42:50;21.51;65.50
68943;DHT22;60852;52.190;4.422;2023-08-01T12:45:15;21.38;65.16
68943;DHT22;60852;52.190;4.422;2023-08-01T12:47:40;21.37;65.31
68943;DHT22;60852;52.190;4.422;2023-08-01T12:50:06;21.35;65.31
68943;DHT22;60852;52.190;4.422;2023-08-01T12:52:32;21.25;66.13
68943;DHT22;60852;52.190;4.422;2023-08-01T12:54:57;21.07;66.67
68943;DHT22;60852;52.190;4.422;2023-08-01T12:57:23;21.20;66.73
68943;DHT22;60852;52.190;4.422;2023-08-01T12:59:49;20.98;64.89
68943;DHT22;60852;52.190;4.422;2023-08-01T13:02:14;20.94;66.65
68943;DHT22;60852;52.190;4.422;2023-08-01T13:04:40;21.06;65.16
68943;DHT22;60852;52.190;4.422;2023-08-01T13:07:05;21.15;65.33
68943;DHT22;60852;52.190;4.422;2023-08-01T13:09:31;21.32;66.65
68943;DHT22;60852;52.190;4.422;2023-08-01T13:11:56;21.45;63.10
68943;DHT22;60852;52.190;4.422;2023-08-01T13:14:23;21.52;62.30
68943;DHT22;60852;52.190;4.422;2023-08-01T13:16:49;21.62;63.23
68943;DHT22;60852;52.190;4.422;2023-08-01T13:19:15;21.66;62.97
68943;DHT22;60852;52.190;4.422;2023-08-01T13:21:40;21.65;63.81
68943;DHT22;60852;52.190;4.422;2023-08-01T13:24:07;21.41;63.79
68943;DHT22;60852;52.190;4.422;2023-08-01T13:26:34;21.37;65.35
68943;DHT22;60852;52.190;4.422;2023-08-01T13:28:59;21.27;65.76
68943;DHT22;60852;52.190;4.422;2023-08-01T13:31:28;21.21;66.20
68943;DHT22;60852;52.190;4.422;2023-08-01T13:33:54;21.10;66.52
68943;DHT22;60852;52.190;4.422;2023-08-01T13:36:20;21.24;65.77
68943;DHT22;60852;52.190;4.422;2023-08-01T13:38:46;21.12;66.73
68943;DHT22;60852;52.190;4.422;2023-08-01T13:41:11;21.14;65.13
68943;DHT22;60852;52.190;4.422;2023-08-01T13:43:37;21.06;65.53
68943;DHT22;60852;52.190;4.422;2023-08-01T13:46:17;21.11;65.36
68943;DHT22;60852;52.190;4.422;2023-08-01T13:48:44;21.01;65.70
68943;DHT22;60852;52.190;4.422;2023-08-01T13:51:10;20.86;66.91
68943;DHT22;60852;52.190;4.422;2023-08-01T13:53:36;20.80;67.91
68943;DHT22;60852;52.190;4.422;2023-08-01T13:56:10;20.60;72.84
68943;DHT22;60852;52.190;4.422;2023-08-01T13:58:37;20.26;74.91
68943;DHT22;60852;52.190;4.422;2023-08-01T14:01:04;19.81;77.01
68943;DHT22;60852;52.190;4.422;2023-08-01T14:03:30;19.57;78.06
68943;DHT22;60852;52.190;4.422;2023-08-01T14:08:31;19.56;79.07
68943;DHT22;60852;52.190;4.422;2023-08-01T14:10:57;19.46;77.94
68943;DHT22;60852;52.190;4.422;2023-08-01T14:13:22;19.23;78.59
68943;DHT22;60852;52.190;4.422;2023-08-01T14:15:48;19.10;78.89
68943;DHT22;60852;52.190;4.422;2023-08-01T14:18:13;19.00;78.60
68943;DHT22;60852;52.190;4.422;2023-08-01T14:20:38;18.94;78.84
68943;DHT22;60852;52.190;4.422;2023-08-01T14:23:04;19.05;79.32
68943;DHT22;60852;52.190;4.422;2023-08-01T14:25:29;19.09;79.16
68943;DHT22;60852;52.190;4.422;2023-08-01T14:27:55;19.37;79.13
68943;DHT22;60852;52.190;4.422;2023-08-01T14:30:20;19.47;77.74
68943;DHT22;60852;52.190;4.422;2023-08-01T14:32:46;19.63;77.65
68943;DHT22;60852;52.190;4.422;2023-08-01T14:35:11;19.79;76.93
68943;DHT22;60852;52.190;4.422;2023-08-01T14:37:37;19.95;76.52
68943;DHT22;60852;52.190;4.422;2023-08-01T14:40:02;20.02;76.35
68943;DHT22;60852;52.190;4.422;2023-08-01T14:42:29;20.24;76.71
68943;DHT22;60852;52.190;4.422;2023-08-01T14:44:54;20.45;75.84
68943;DHT22;60852;52.190;4.422;2023-08-01T14:47:20;20.53;74.93
68943;DHT22;60852;52.190;4.422;2023-08-01T14:49:46;20.60;73.10
68943;DHT22;60852;52.190;4.422;2023-08-01T14:52:12;20.59;73.24
68943;DHT22;60852;52.190;4.422;2023-08-01T14:54:37;20.49;71.91
68943;DHT22;60852;52.190;4.422;2023-08-01T14:57:04;20.46;72.40
68943;DHT22;60852;52.190;4.422;2023-08-01T14:59:30;20.33;72.35
68943;DHT22;60852;52.190;4.422;2023-08-01T15:01:56;20.18;71.91
68943;DHT22;60852;52.190;4.422;2023-08-01T15:04:21;20.19;71.02
68943;DHT22;60852;52.190;4.422;2023-08-01T15:06:47;20.22;70.87
68943;DHT22;60852;52.190;4.422;2023-08-01T15:09:13;20.28;70.98
68943;DHT22;60852;52.190;4.422;2023-08-01T15:11:38;20.39;70.71
68943;DHT22;60852;52.190;4.422;2023-08-01T15:14:03;20.50;69.91
68943;DHT22;60852;52.190;4.422;2023-08-01T15:16:29;20.66;69.72
68943;DHT22;60852;52.190;4.422;2023-08-01T15:18:54;20.72;68.26
68943;DHT22;60852;52.190;4.422;2023-08-01T15:21:20;20.76;68.83
68943;DHT22;60852;52.190;4.422;2023-08-01T15:23:46;20.72;69.22
68943;DHT22;60852;52.190;4.422;2023-08-01T15:26:11;20.70;69.37
68943;DHT22;60852;52.190;4.422;2023-08-01T15:28:36;20.77;69.10
68943;DHT22;60852;52.190;4.422;2023-08-01T15:31:03;20.72;69.75
68943;DHT22;60852;52.190;4.422;2023-08-01T15:33:32;20.67;68.96